createdAt,value
2017-09-23T00:00:00.071Z,779.67
2017-09-23T00:00:04.457Z,779.66
2017-09-23T00:00:08.921Z,779.65
2017-09-23T00:00:13.131Z,779.65
2017-09-23T00:00:17.216Z,779.66
2017-09-23T00:00:21.552Z,779.62
2017-09-23T00:00:25.515Z,779.67
2017-09-23T00:00:29.854Z,779.68
2017-09-23T00:00:33.820Z,779.68
2017-09-23T00:00:38.044Z,779.66
2017-09-23T00:00:42.636Z,779.73
2017-09-23T00:00:47.098Z,779.74
2017-09-23T00:00:51.438Z,779.73
2017-09-23T00:00:55.522Z,779.75
2017-09-23T00:00:59.615Z,779.75
2017-09-23T00:01:04.130Z,779.73
2017-09-23T00:01:08.342Z,779.76
2017-09-23T00:01:12.305Z,779.75
2017-09-23T00:01:16.258Z,779.76
2017-09-23T00:01:20.471Z,779.74
2017-09-23T00:01:24.815Z,779.75
2017-09-23T00:01:29.028Z,779.77
2017-09-23T00:01:32.992Z,779.78
2017-09-23T00:01:37.209Z,779.77
2017-09-23T00:01:41.673Z,779.79
2017-09-23T00:01:45.882Z,779.77
2017-09-23T00:01:49.973Z,779.77
2017-09-23T00:01:54.184Z,779.77
2017-09-23T00:01:58.269Z,779.78
2017-09-23T00:02:02.606Z,779.78
2017-09-23T00:02:06.439Z,779.81
2017-09-23T00:02:10.780Z,779.79
2017-09-23T00:02:14.738Z,779.8
2017-09-23T00:02:18.957Z,779.81
2017-09-23T00:02:23.172Z,779.81
2017-09-23T00:02:27.635Z,779.83
2017-09-23T00:02:31.723Z,779.8
2017-09-23T00:02:35.935Z,779.82
2017-09-23T00:02:40.030Z,779.85
2017-09-23T00:02:44.242Z,779.83
2017-09-23T00:02:48.201Z,779.83
2017-09-23T00:02:52.417Z,779.79
2017-09-23T00:02:56.643Z,779.86
2017-09-23T00:03:00.853Z,779.85
2017-09-23T00:03:05.123Z,779.89
2017-09-23T00:03:09.587Z,779.87
2017-09-23T00:03:13.800Z,779.89
2017-09-23T00:03:17.759Z,779.86
2017-09-23T00:03:21.857Z,779.87
2017-09-23T00:03:26.070Z,779.9
2017-09-23T00:03:30.030Z,779.88
2017-09-23T00:03:34.366Z,779.87
2017-09-23T00:03:38.453Z,779.89
2017-09-23T00:03:42.412Z,779.9
2017-09-23T00:03:46.753Z,779.9
2017-09-23T00:03:50.839Z,779.87
2017-09-23T00:03:54.927Z,779.92
2017-09-23T00:03:58.885Z,779.96
2017-09-23T00:04:03.374Z,779.96
2017-09-23T00:04:07.594Z,779.95
2017-09-23T00:04:11.433Z,779.94
2017-09-23T00:04:15.643Z,779.97
2017-09-23T00:04:19.860Z,780
2017-09-23T00:04:23.827Z,779.98
2017-09-23T00:04:27.917Z,779.95
2017-09-23T00:04:32.131Z,779.98
2017-09-23T00:04:36.473Z,780.01
2017-09-23T00:04:40.305Z,780
2017-09-23T00:04:44.772Z,779.94
2017-09-23T00:04:48.857Z,779.99
2017-09-23T00:04:53.196Z,779.97
2017-09-23T00:04:57.160Z,779.98
2017-09-23T00:05:01.248Z,780.04
2017-09-23T00:05:05.584Z,780.07
2017-09-23T00:05:10.052Z,780.05
2017-09-23T00:05:14.036Z,780.07
2017-09-23T00:05:18.245Z,780.01
2017-09-23T00:05:22.469Z,780.05
2017-09-23T00:05:26.684Z,780.1
2017-09-23T00:05:31.026Z,780.13
2017-09-23T00:05:34.989Z,780.07
2017-09-23T00:05:39.214Z,780.06
2017-09-23T00:05:43.306Z,780.14
2017-09-23T00:05:47.394Z,780.11
2017-09-23T00:05:51.603Z,780.15
2017-09-23T00:05:55.689Z,780.14
2017-09-23T00:05:59.653Z,780.16
2017-09-23T00:06:03.620Z,780.16
2017-09-23T00:06:07.838Z,780.16
2017-09-23T00:06:11.802Z,780.17
2017-09-23T00:06:16.014Z,780.15
2017-09-23T00:06:19.979Z,780.11
2017-09-23T00:06:24.328Z,780.16
2017-09-23T00:06:28.541Z,780.16
2017-09-23T00:06:32.886Z,780.16
2017-09-23T00:06:36.861Z,780.19
2017-09-23T00:06:40.952Z,780.13
2017-09-23T00:06:44.797Z,780.2
2017-09-23T00:06:49.134Z,780.2
2017-09-23T00:06:53.353Z,780.22
2017-09-23T00:06:57.440Z,780.22
2017-09-23T00:07:01.661Z,780.25
2017-09-23T00:07:05.874Z,780.26
2017-09-23T00:07:10.337Z,780.24
2017-09-23T00:07:14.713Z,780.27
2017-09-23T00:07:18.553Z,780.29
2017-09-23T00:07:22.768Z,780.25
2017-09-23T00:07:27.108Z,780.26
2017-09-23T00:07:31.457Z,780.25
2017-09-23T00:07:35.420Z,780.31
2017-09-23T00:07:39.632Z,780.27
2017-09-23T00:07:43.842Z,780.31
2017-09-23T00:07:48.307Z,780.3
2017-09-23T00:07:52.644Z,780.28
2017-09-23T00:07:56.612Z,780.34
2017-09-23T00:08:00.573Z,780.27
2017-09-23T00:08:04.534Z,780.27
2017-09-23T00:08:08.751Z,780.33
2017-09-23T00:08:13.097Z,780.34
2017-09-23T00:08:17.059Z,780.34
2017-09-23T00:08:21.266Z,780.36
2017-09-23T00:08:25.616Z,780.33
2017-09-23T00:08:29.706Z,780.37
2017-09-23T00:08:33.917Z,780.38
2017-09-23T00:08:37.879Z,780.4
2017-09-23T00:08:41.966Z,780.4
2017-09-23T00:08:46.050Z,780.38
2017-09-23T00:08:50.258Z,780.39
2017-09-23T00:08:54.344Z,780.38
2017-09-23T00:08:58.433Z,780.38
2017-09-23T00:09:02.843Z,780.43
2017-09-23T00:09:06.928Z,780.42
2017-09-23T00:09:11.390Z,780.41
2017-09-23T00:09:15.727Z,780.45
2017-09-23T00:09:19.812Z,780.35
2017-09-23T00:09:23.777Z,780.44
2017-09-23T00:09:27.998Z,780.41
2017-09-23T00:09:32.084Z,780.42
2017-09-23T00:09:36.418Z,780.45
2017-09-23T00:09:40.629Z,780.46
2017-09-23T00:09:44.840Z,780.48
2017-09-23T00:09:49.048Z,780.48
2017-09-23T00:09:53.256Z,780.43
2017-09-23T00:09:57.353Z,780.4
2017-09-23T00:10:01.824Z,780.44
2017-09-23T00:10:06.040Z,780.41
2017-09-23T00:10:10.126Z,780.47
2017-09-23T00:10:14.084Z,780.49
2017-09-23T00:10:18.295Z,780.51
2017-09-23T00:10:22.755Z,780.49
2017-09-23T00:10:26.970Z,780.49
2017-09-23T00:10:31.107Z,780.51
2017-09-23T00:10:35.191Z,780.5
2017-09-23T00:10:39.148Z,780.52
2017-09-23T00:10:43.360Z,780.5
2017-09-23T00:10:47.313Z,780.5
2017-09-23T00:10:51.524Z,780.52
2017-09-23T00:10:55.614Z,780.5
2017-09-23T00:10:59.832Z,780.43
2017-09-23T00:11:03.929Z,780.43
2017-09-23T00:11:08.267Z,780.47
2017-09-23T00:11:12.231Z,780.45
2017-09-23T00:11:16.564Z,780.53
2017-09-23T00:11:20.902Z,780.51
2017-09-23T00:11:24.872Z,780.5
2017-09-23T00:11:29.096Z,780.52
2017-09-23T00:11:32.934Z,780.51
2017-09-23T00:11:37.142Z,780.5
2017-09-23T00:11:41.604Z,780.47
2017-09-23T00:11:45.817Z,780.46
2017-09-23T00:11:49.778Z,780.49
2017-09-23T00:11:53.864Z,780.51
2017-09-23T00:11:57.825Z,780.48
2017-09-23T00:12:02.086Z,780.48
2017-09-23T00:12:06.054Z,780.48
2017-09-23T00:12:10.262Z,780.49
2017-09-23T00:12:14.352Z,780.5
2017-09-23T00:12:18.564Z,780.47
2017-09-23T00:12:23.029Z,780.47
2017-09-23T00:12:27.126Z,780.48
2017-09-23T00:12:31.078Z,780.47
2017-09-23T00:12:35.159Z,780.49
2017-09-23T00:12:39.128Z,780.45
2017-09-23T00:12:43.369Z,780.47
2017-09-23T00:12:47.305Z,780.45
2017-09-23T00:12:51.389Z,780.45
2017-09-23T00:12:55.476Z,780.45
2017-09-23T00:12:59.567Z,780.42
2017-09-23T00:13:04.226Z,780.46
2017-09-23T00:13:08.438Z,780.41
2017-09-23T00:13:12.786Z,780.46
2017-09-23T00:13:16.751Z,780.42
2017-09-23T00:13:20.841Z,780.42
2017-09-23T00:13:24.924Z,780.37
2017-09-23T00:13:29.137Z,780.39
2017-09-23T00:13:33.348Z,780.38
2017-09-23T00:13:37.435Z,780.38
2017-09-23T00:13:41.400Z,780.38
2017-09-23T00:13:45.365Z,780.39
2017-09-23T00:13:49.450Z,780.38
2017-09-23T00:13:53.663Z,780.38
2017-09-23T00:13:58.002Z,780.36
2017-09-23T00:14:01.839Z,780.39
2017-09-23T00:14:05.901Z,780.38
2017-09-23T00:14:09.859Z,780.35
2017-09-23T00:14:14.077Z,780.36
2017-09-23T00:14:18.174Z,780.38
2017-09-23T00:14:22.390Z,780.34
2017-09-23T00:14:26.860Z,780.34
2017-09-23T00:14:30.690Z,780.37
2017-09-23T00:14:34.908Z,780.34
2017-09-23T00:14:39.118Z,780.31
2017-09-23T00:14:43.074Z,780.27
2017-09-23T00:14:47.035Z,780.27
2017-09-23T00:14:51.242Z,780.26
2017-09-23T00:14:55.206Z,780.31
2017-09-23T00:14:59.289Z,780.31
2017-09-23T00:15:03.379Z,780.29
2017-09-23T00:15:07.467Z,780.31
2017-09-23T00:15:11.683Z,780.29
2017-09-23T00:15:15.902Z,780.28
2017-09-23T00:15:20.109Z,780.28
2017-09-23T00:15:24.446Z,780.24
2017-09-23T00:15:28.409Z,780.23
2017-09-23T00:15:32.494Z,780.22
2017-09-23T00:15:36.707Z,780.2
2017-09-23T00:15:40.667Z,780.2
2017-09-23T00:15:44.633Z,780.21
2017-09-23T00:15:48.720Z,780.2
2017-09-23T00:15:52.926Z,780.2
2017-09-23T00:15:57.012Z,780.17
2017-09-23T00:16:01.106Z,780.2
2017-09-23T00:16:05.067Z,780.13
2017-09-23T00:16:09.028Z,780.15
2017-09-23T00:16:13.240Z,780.13
2017-09-23T00:16:17.449Z,780.15
2017-09-23T00:16:21.406Z,780.13
2017-09-23T00:16:25.617Z,780.05
2017-09-23T00:16:29.573Z,780.05
2017-09-23T00:16:33.781Z,780.07
2017-09-23T00:16:37.993Z,780.08
2017-09-23T00:16:41.958Z,780.07
2017-09-23T00:16:46.168Z,780.05
2017-09-23T00:16:50.379Z,780.06
2017-09-23T00:16:54.592Z,780.04
2017-09-23T00:16:58.679Z,780.04
2017-09-23T00:17:02.639Z,780.01
2017-09-23T00:17:06.973Z,780.03
2017-09-23T00:17:10.936Z,779.99
2017-09-23T00:17:14.896Z,780.03
2017-09-23T00:17:18.985Z,779.99
2017-09-23T00:17:23.072Z,779.92
2017-09-23T00:17:27.030Z,779.92
2017-09-23T00:17:31.367Z,779.95
2017-09-23T00:17:35.451Z,779.91
2017-09-23T00:17:39.670Z,779.94
2017-09-23T00:17:44.021Z,779.93
2017-09-23T00:17:48.102Z,779.91
2017-09-23T00:17:52.190Z,779.93
2017-09-23T00:17:56.280Z,779.93
2017-09-23T00:18:00.242Z,779.93
2017-09-23T00:18:04.499Z,779.94
2017-09-23T00:18:08.584Z,779.96
2017-09-23T00:18:12.674Z,779.9
2017-09-23T00:18:16.640Z,779.93
2017-09-23T00:18:20.976Z,779.92
2017-09-23T00:18:25.191Z,779.89
2017-09-23T00:18:29.286Z,779.9
2017-09-23T00:18:33.373Z,779.91
2017-09-23T00:18:37.588Z,779.9
2017-09-23T00:18:41.424Z,779.88
2017-09-23T00:18:45.382Z,779.88
2017-09-23T00:18:49.594Z,779.86
2017-09-23T00:18:53.687Z,779.87
2017-09-23T00:18:58.025Z,779.87
2017-09-23T00:19:02.494Z,779.83
2017-09-23T00:19:06.454Z,779.85
2017-09-23T00:19:10.286Z,779.86
2017-09-23T00:19:14.250Z,779.83
2017-09-23T00:19:18.582Z,779.87
2017-09-23T00:19:22.551Z,779.85
2017-09-23T00:19:26.637Z,779.84
2017-09-23T00:19:30.848Z,779.82
2017-09-23T00:19:34.932Z,779.82
2017-09-23T00:19:38.886Z,779.82
2017-09-23T00:19:42.849Z,779.84
2017-09-23T00:19:46.932Z,779.81
2017-09-23T00:19:51.016Z,779.84
2017-09-23T00:19:55.104Z,779.81
2017-09-23T00:19:59.307Z,779.79
2017-09-23T00:20:03.624Z,779.79
2017-09-23T00:20:07.833Z,779.8
2017-09-23T00:20:12.174Z,779.83
2017-09-23T00:20:16.014Z,779.77
2017-09-23T00:20:20.345Z,779.8
2017-09-23T00:20:24.305Z,779.76
2017-09-23T00:20:28.392Z,779.84
2017-09-23T00:20:32.599Z,779.74
2017-09-23T00:20:36.553Z,779.79
2017-09-23T00:20:40.524Z,779.78
2017-09-23T00:20:44.737Z,779.8
2017-09-23T00:20:48.824Z,779.79
2017-09-23T00:20:52.913Z,779.78
2017-09-23T00:20:57.124Z,779.79
2017-09-23T00:21:01.231Z,779.77
2017-09-23T00:21:05.321Z,779.74
2017-09-23T00:21:09.530Z,779.71
2017-09-23T00:21:13.753Z,779.7
2017-09-23T00:21:18.101Z,779.72
2017-09-23T00:21:22.059Z,779.75
2017-09-23T00:21:26.144Z,779.73
2017-09-23T00:21:30.236Z,779.7
2017-09-23T00:21:34.465Z,779.74
2017-09-23T00:21:38.301Z,779.72
2017-09-23T00:21:42.139Z,779.75
2017-09-23T00:21:46.363Z,779.7
2017-09-23T00:21:50.579Z,779.71
2017-09-23T00:21:54.794Z,779.7
2017-09-23T00:21:58.884Z,779.68
2017-09-23T00:22:03.099Z,779.7
2017-09-23T00:22:07.190Z,779.68
2017-09-23T00:22:11.280Z,779.69
2017-09-23T00:22:15.240Z,779.7
2017-09-23T00:22:19.444Z,779.68
2017-09-23T00:22:23.658Z,779.65
2017-09-23T00:22:27.743Z,779.66
2017-09-23T00:22:31.829Z,779.66
2017-09-23T00:22:36.036Z,779.66
2017-09-23T00:22:39.993Z,779.67
2017-09-23T00:22:44.112Z,779.67
2017-09-23T00:22:48.449Z,779.67
2017-09-23T00:22:52.658Z,779.62
2017-09-23T00:22:56.873Z,779.61
2017-09-23T00:23:01.091Z,779.65
2017-09-23T00:23:05.047Z,779.6
2017-09-23T00:23:09.135Z,779.62
2017-09-23T00:23:12.970Z,779.62
2017-09-23T00:23:17.056Z,779.64
2017-09-23T00:23:21.266Z,779.63
2017-09-23T00:23:25.366Z,779.62
2017-09-23T00:23:29.713Z,779.61
2017-09-23T00:23:33.551Z,779.63
2017-09-23T00:23:37.765Z,779.58
2017-09-23T00:23:41.725Z,779.62
2017-09-23T00:23:46.061Z,779.61
2017-09-23T00:23:50.152Z,779.59
2017-09-23T00:23:54.504Z,779.62
2017-09-23T00:23:58.592Z,779.59
2017-09-23T00:24:02.552Z,779.61
2017-09-23T00:24:06.510Z,779.62
2017-09-23T00:24:10.720Z,779.64
2017-09-23T00:24:14.932Z,779.61
2017-09-23T00:24:18.888Z,779.63
2017-09-23T00:24:22.846Z,779.63
2017-09-23T00:24:26.929Z,779.62
2017-09-23T00:24:31.155Z,779.6
2017-09-23T00:24:35.246Z,779.6
2017-09-23T00:24:39.208Z,779.58
2017-09-23T00:24:43.682Z,779.55
2017-09-23T00:24:47.673Z,779.61
2017-09-23T00:24:51.759Z,779.61
2017-09-23T00:24:55.978Z,779.59
2017-09-23T00:25:00.068Z,779.56
2017-09-23T00:25:04.535Z,779.58
2017-09-23T00:25:08.746Z,779.55
2017-09-23T00:25:12.832Z,779.56
2017-09-23T00:25:16.920Z,779.55
2017-09-23T00:25:20.760Z,779.6
2017-09-23T00:25:24.976Z,779.54
2017-09-23T00:25:29.320Z,779.57
2017-09-23T00:25:33.534Z,779.55
2017-09-23T00:25:37.747Z,779.54
2017-09-23T00:25:41.841Z,779.54
2017-09-23T00:25:46.174Z,779.55
2017-09-23T00:25:50.265Z,779.54
2017-09-23T00:25:54.480Z,779.5
2017-09-23T00:25:58.563Z,779.55
2017-09-23T00:26:02.398Z,779.52
2017-09-23T00:26:06.485Z,779.5
2017-09-23T00:26:10.574Z,779.55
2017-09-23T00:26:14.541Z,779.56
2017-09-23T00:26:18.758Z,779.55
2017-09-23T00:26:22.835Z,779.54
2017-09-23T00:26:26.917Z,779.49
2017-09-23T00:26:30.878Z,779.5
2017-09-23T00:26:34.960Z,779.56
2017-09-23T00:26:38.926Z,779.54
2017-09-23T00:26:43.274Z,779.49
2017-09-23T00:26:47.739Z,779.45
2017-09-23T00:26:51.827Z,779.47
2017-09-23T00:26:55.780Z,779.45
2017-09-23T00:26:59.997Z,779.48
2017-09-23T00:27:03.971Z,779.51
2017-09-23T00:27:08.058Z,779.54
2017-09-23T00:27:12.142Z,779.5
2017-09-23T00:27:16.359Z,779.51
2017-09-23T00:27:20.441Z,779.48
2017-09-23T00:27:24.656Z,779.5
2017-09-23T00:27:28.741Z,779.49
2017-09-23T00:27:32.952Z,779.5
2017-09-23T00:27:37.038Z,779.46
2017-09-23T00:27:41.244Z,779.48
2017-09-23T00:27:45.331Z,779.47
2017-09-23T00:27:49.538Z,779.46
2017-09-23T00:27:53.627Z,779.45
2017-09-23T00:27:57.718Z,779.47
2017-09-23T00:28:01.966Z,779.47
2017-09-23T00:28:05.924Z,779.47
2017-09-23T00:28:10.006Z,779.43
2017-09-23T00:28:14.092Z,779.45
2017-09-23T00:28:18.049Z,779.49
2017-09-23T00:28:22.141Z,779.46
2017-09-23T00:28:26.096Z,779.41
2017-09-23T00:28:30.314Z,779.43
2017-09-23T00:28:34.526Z,779.45
2017-09-23T00:28:38.737Z,779.43
2017-09-23T00:28:42.701Z,779.47
2017-09-23T00:28:47.038Z,779.4
2017-09-23T00:28:51.372Z,779.41
2017-09-23T00:28:55.462Z,779.47
2017-09-23T00:28:59.674Z,779.46
2017-09-23T00:29:03.805Z,779.46
2017-09-23T00:29:08.015Z,779.43
2017-09-23T00:29:12.232Z,779.43
2017-09-23T00:29:16.068Z,779.44
2017-09-23T00:29:20.280Z,779.46
2017-09-23T00:29:24.497Z,779.41
2017-09-23T00:29:28.706Z,779.42
2017-09-23T00:29:33.045Z,779.41
2017-09-23T00:29:37.004Z,779.42
2017-09-23T00:29:40.965Z,779.43
2017-09-23T00:29:45.049Z,779.41
2017-09-23T00:29:49.259Z,779.38
2017-09-23T00:29:53.722Z,779.36
2017-09-23T00:29:57.811Z,779.41
2017-09-23T00:30:02.175Z,779.41
2017-09-23T00:30:06.136Z,779.4
2017-09-23T00:30:10.218Z,779.41
2017-09-23T00:30:14.430Z,779.42
2017-09-23T00:30:18.517Z,779.42
2017-09-23T00:30:22.856Z,779.42
2017-09-23T00:30:26.952Z,779.41
2017-09-23T00:30:31.037Z,779.41
2017-09-23T00:30:35.116Z,779.39
2017-09-23T00:30:39.444Z,779.39
2017-09-23T00:30:43.653Z,779.4
2017-09-23T00:30:47.608Z,779.38
2017-09-23T00:30:51.822Z,779.4
2017-09-23T00:30:56.032Z,779.42
2017-09-23T00:31:00.239Z,779.39
2017-09-23T00:31:04.578Z,779.43
2017-09-23T00:31:08.543Z,779.36
2017-09-23T00:31:12.629Z,779.35
2017-09-23T00:31:16.842Z,779.34
2017-09-23T00:31:20.924Z,779.35
2017-09-23T00:31:25.130Z,779.39
2017-09-23T00:31:29.590Z,779.37
2017-09-23T00:31:33.675Z,779.36
2017-09-23T00:31:37.881Z,779.37
2017-09-23T00:31:42.212Z,779.37
2017-09-23T00:31:46.294Z,779.37
2017-09-23T00:31:50.253Z,779.35
2017-09-23T00:31:54.212Z,779.35
2017-09-23T00:31:58.180Z,779.33
2017-09-23T00:32:02.392Z,779.34
2017-09-23T00:32:06.350Z,779.35
2017-09-23T00:32:10.566Z,779.36
2017-09-23T00:32:14.521Z,779.34
2017-09-23T00:32:18.610Z,779.34
2017-09-23T00:32:22.565Z,779.34
2017-09-23T00:32:27.020Z,779.38
2017-09-23T00:32:31.101Z,779.33
2017-09-23T00:32:35.185Z,779.34
2017-09-23T00:32:39.151Z,779.34
2017-09-23T00:32:43.620Z,779.35
2017-09-23T00:32:47.833Z,779.34
2017-09-23T00:32:51.916Z,779.35
2017-09-23T00:32:55.877Z,779.34
2017-09-23T00:32:59.966Z,779.34
2017-09-23T00:33:03.931Z,779.34
2017-09-23T00:33:08.162Z,779.33
2017-09-23T00:33:12.490Z,779.34
2017-09-23T00:33:16.451Z,779.31
2017-09-23T00:33:20.279Z,779.34
2017-09-23T00:33:24.381Z,779.32
2017-09-23T00:33:28.592Z,779.32
2017-09-23T00:33:32.808Z,779.3
2017-09-23T00:33:37.024Z,779.31
2017-09-23T00:33:41.363Z,779.33
2017-09-23T00:33:45.320Z,779.31
2017-09-23T00:33:49.530Z,779.3
2017-09-23T00:33:53.488Z,779.32
2017-09-23T00:33:57.580Z,779.3
2017-09-23T00:34:01.417Z,779.28
2017-09-23T00:34:05.721Z,779.3
2017-09-23T00:34:09.643Z,779.32
2017-09-23T00:34:13.727Z,779.31
2017-09-23T00:34:17.937Z,779.28
2017-09-23T00:34:22.028Z,779.29
2017-09-23T00:34:25.859Z,779.29
2017-09-23T00:34:29.820Z,779.3
2017-09-23T00:34:34.037Z,779.25
2017-09-23T00:34:38.257Z,779.29
2017-09-23T00:34:42.336Z,779.28
2017-09-23T00:34:46.564Z,779.28
2017-09-23T00:34:50.650Z,779.25
2017-09-23T00:34:54.742Z,779.23
2017-09-23T00:34:58.949Z,779.22
2017-09-23T00:35:03.358Z,779.22
2017-09-23T00:35:07.577Z,779.23
2017-09-23T00:35:11.782Z,779.26
2017-09-23T00:35:16.109Z,779.27
2017-09-23T00:35:20.071Z,779.25
2017-09-23T00:35:24.282Z,779.27
2017-09-23T00:35:28.125Z,779.24
2017-09-23T00:35:32.340Z,779.26
2017-09-23T00:35:36.428Z,779.25
2017-09-23T00:35:40.513Z,779.25
2017-09-23T00:35:44.601Z,779.24
2017-09-23T00:35:48.808Z,779.29
2017-09-23T00:35:53.270Z,779.25
2017-09-23T00:35:57.230Z,779.29
2017-09-23T00:36:01.308Z,779.23
2017-09-23T00:36:05.400Z,779.23
2017-09-23T00:36:09.656Z,779.24
2017-09-23T00:36:13.494Z,779.24
2017-09-23T00:36:17.582Z,779.24
2017-09-23T00:36:21.921Z,779.23
2017-09-23T00:36:26.252Z,779.22
2017-09-23T00:36:30.095Z,779.24
2017-09-23T00:36:34.176Z,779.23
2017-09-23T00:36:38.262Z,779.23
2017-09-23T00:36:42.227Z,779.22
2017-09-23T00:36:46.564Z,779.24
2017-09-23T00:36:50.651Z,779.24
2017-09-23T00:36:54.740Z,779.23
2017-09-23T00:36:58.825Z,779.25
2017-09-23T00:37:03.160Z,779.23
2017-09-23T00:37:07.534Z,779.23
2017-09-23T00:37:11.741Z,779.21
2017-09-23T00:37:15.953Z,779.23
2017-09-23T00:37:19.909Z,779.23
2017-09-23T00:37:24.000Z,779.22
2017-09-23T00:37:28.331Z,779.22
2017-09-23T00:37:32.293Z,779.23
2017-09-23T00:37:36.635Z,779.23
2017-09-23T00:37:40.843Z,779.2
2017-09-23T00:37:44.934Z,779.2
2017-09-23T00:37:49.023Z,779.18
2017-09-23T00:37:52.981Z,779.21
2017-09-23T00:37:57.318Z,779.24
2017-09-23T00:38:01.157Z,779.2
2017-09-23T00:38:05.121Z,779.22
2017-09-23T00:38:09.205Z,779.23
2017-09-23T00:38:13.542Z,779.23
2017-09-23T00:38:17.628Z,779.24
2017-09-23T00:38:21.716Z,779.22
2017-09-23T00:38:25.549Z,779.19
2017-09-23T00:38:29.878Z,779.19
2017-09-23T00:38:33.958Z,779.2
2017-09-23T00:38:38.168Z,779.22
2017-09-23T00:38:42.129Z,779.17
2017-09-23T00:38:46.214Z,779.19
2017-09-23T00:38:50.428Z,779.24
2017-09-23T00:38:54.637Z,779.2
2017-09-23T00:38:58.604Z,779.19
2017-09-23T00:39:02.691Z,779.22
2017-09-23T00:39:06.906Z,779.24
2017-09-23T00:39:10.992Z,779.24
2017-09-23T00:39:15.196Z,779.23
2017-09-23T00:39:19.283Z,779.22
2017-09-23T00:39:23.118Z,779.21
2017-09-23T00:39:27.077Z,779.21
2017-09-23T00:39:31.415Z,779.2
2017-09-23T00:39:35.496Z,779.23
2017-09-23T00:39:39.706Z,779.18
2017-09-23T00:39:43.916Z,779.21
2017-09-23T00:39:48.006Z,779.22
2017-09-23T00:39:52.224Z,779.21
2017-09-23T00:39:56.195Z,779.2
2017-09-23T00:40:00.527Z,779.19
2017-09-23T00:40:04.960Z,779.19
2017-09-23T00:40:09.300Z,779.21
2017-09-23T00:40:13.391Z,779.2
2017-09-23T00:40:17.475Z,779.19
2017-09-23T00:40:21.818Z,779.15
2017-09-23T00:40:25.904Z,779.21
2017-09-23T00:40:30.240Z,779.17
2017-09-23T00:40:34.702Z,779.17
2017-09-23T00:40:38.792Z,779.17
2017-09-23T00:40:42.882Z,779.2
2017-09-23T00:40:46.847Z,779.17
2017-09-23T00:40:50.934Z,779.2
2017-09-23T00:40:54.773Z,779.16
2017-09-23T00:40:58.858Z,779.16
2017-09-23T00:41:02.693Z,779.15
2017-09-23T00:41:06.796Z,779.13
2017-09-23T00:41:10.885Z,779.14
2017-09-23T00:41:15.355Z,779.11
2017-09-23T00:41:19.688Z,779.11
2017-09-23T00:41:24.148Z,779.1
2017-09-23T00:41:28.487Z,779.12
2017-09-23T00:41:32.572Z,779.11
2017-09-23T00:41:36.905Z,779.06
2017-09-23T00:41:40.869Z,779.08
2017-09-23T00:41:45.213Z,779.05
2017-09-23T00:41:49.550Z,779.04
2017-09-23T00:41:53.633Z,779.06
2017-09-23T00:41:57.720Z,779.04
2017-09-23T00:42:01.681Z,779.06
2017-09-23T00:42:06.074Z,779.04
2017-09-23T00:42:10.284Z,779.05
2017-09-23T00:42:14.626Z,779.06
2017-09-23T00:42:18.837Z,779.01
2017-09-23T00:42:22.927Z,779.04
2017-09-23T00:42:27.011Z,779.02
2017-09-23T00:42:31.099Z,779.02
2017-09-23T00:42:35.181Z,779.03
2017-09-23T00:42:39.392Z,779
2017-09-23T00:42:43.481Z,778.98
2017-09-23T00:42:47.446Z,778.97
2017-09-23T00:42:51.536Z,778.96
2017-09-23T00:42:55.623Z,778.96
2017-09-23T00:42:59.588Z,778.9
2017-09-23T00:43:04.070Z,778.94
2017-09-23T00:43:08.280Z,778.91
2017-09-23T00:43:12.403Z,778.95
2017-09-23T00:43:16.507Z,778.93
2017-09-23T00:43:20.470Z,778.94
2017-09-23T00:43:24.432Z,778.91
2017-09-23T00:43:28.269Z,778.91
2017-09-23T00:43:32.224Z,778.9
2017-09-23T00:43:36.558Z,778.9
2017-09-23T00:43:40.894Z,778.88
2017-09-23T00:43:45.231Z,778.85
2017-09-23T00:43:49.318Z,778.85
2017-09-23T00:43:53.280Z,778.85
2017-09-23T00:43:57.619Z,778.84
2017-09-23T00:44:01.585Z,778.83
2017-09-23T00:44:05.720Z,778.82
2017-09-23T00:44:09.803Z,778.77
2017-09-23T00:44:14.143Z,778.81
2017-09-23T00:44:18.230Z,778.83
2017-09-23T00:44:22.311Z,778.81
2017-09-23T00:44:26.395Z,778.79
2017-09-23T00:44:30.856Z,778.82
2017-09-23T00:44:34.817Z,778.75
2017-09-23T00:44:38.905Z,778.78
2017-09-23T00:44:42.996Z,778.76
2017-09-23T00:44:47.084Z,778.72
2017-09-23T00:44:51.040Z,778.75
2017-09-23T00:44:55.254Z,778.74
2017-09-23T00:44:59.346Z,778.72
2017-09-23T00:45:03.788Z,778.74
2017-09-23T00:45:07.877Z,778.7
2017-09-23T00:45:11.961Z,778.65
2017-09-23T00:45:16.089Z,778.69
2017-09-23T00:45:20.053Z,778.69
2017-09-23T00:45:24.017Z,778.69
2017-09-23T00:45:27.974Z,778.65
2017-09-23T00:45:32.061Z,778.66
2017-09-23T00:45:36.026Z,778.69
2017-09-23T00:45:40.244Z,778.67
2017-09-23T00:45:44.490Z,778.66
2017-09-23T00:45:48.540Z,778.68
2017-09-23T00:45:53.001Z,778.65
2017-09-23T00:45:57.207Z,778.62
2017-09-23T00:46:01.324Z,778.57
2017-09-23T00:46:05.161Z,778.54
2017-09-23T00:46:09.250Z,778.59
2017-09-23T00:46:13.724Z,778.53
2017-09-23T00:46:17.684Z,778.57
2017-09-23T00:46:21.888Z,778.54
2017-09-23T00:46:25.974Z,778.57
2017-09-23T00:46:30.188Z,778.57
2017-09-23T00:46:34.270Z,778.59
2017-09-23T00:46:38.484Z,778.57
2017-09-23T00:46:42.577Z,778.55
2017-09-23T00:46:46.923Z,778.55
2017-09-23T00:46:51.134Z,778.54
2017-09-23T00:46:55.221Z,778.53
2017-09-23T00:46:59.435Z,778.52
2017-09-23T00:47:03.396Z,778.52
2017-09-23T00:47:07.609Z,778.53
2017-09-23T00:47:11.696Z,778.52
2017-09-23T00:47:15.909Z,778.5
2017-09-23T00:47:19.995Z,778.51
2017-09-23T00:47:24.081Z,778.49
2017-09-23T00:47:28.418Z,778.44
2017-09-23T00:47:32.504Z,778.5
2017-09-23T00:47:36.461Z,778.5
2017-09-23T00:47:40.797Z,778.47
2017-09-23T00:47:45.050Z,778.46
2017-09-23T00:47:49.257Z,778.44
2017-09-23T00:47:53.217Z,778.46
2017-09-23T00:47:57.301Z,778.43
2017-09-23T00:48:01.764Z,778.43
2017-09-23T00:48:06.107Z,778.42
2017-09-23T00:48:10.452Z,778.45
2017-09-23T00:48:14.665Z,778.43
2017-09-23T00:48:18.623Z,778.43
2017-09-23T00:48:22.588Z,778.43
2017-09-23T00:48:26.673Z,778.41
2017-09-23T00:48:30.755Z,778.38
2017-09-23T00:48:34.841Z,778.36
2017-09-23T00:48:39.052Z,778.43
2017-09-23T00:48:43.270Z,778.39
2017-09-23T00:48:47.359Z,778.39
2017-09-23T00:48:51.197Z,778.34
2017-09-23T00:48:55.663Z,778.38
2017-09-23T00:48:59.633Z,778.39
2017-09-23T00:49:03.645Z,778.37
2017-09-23T00:49:07.976Z,778.38
2017-09-23T00:49:12.067Z,778.34
2017-09-23T00:49:16.152Z,778.33
2017-09-23T00:49:20.610Z,778.33
2017-09-23T00:49:25.069Z,778.35
2017-09-23T00:49:28.904Z,778.34
2017-09-23T00:49:32.866Z,778.37
2017-09-23T00:49:36.825Z,778.33
2017-09-23T00:49:40.912Z,778.34
2017-09-23T00:49:45.000Z,778.32
2017-09-23T00:49:49.085Z,778.34
2017-09-23T00:49:53.171Z,778.32
2017-09-23T00:49:57.390Z,778.32
2017-09-23T00:50:01.476Z,778.32
2017-09-23T00:50:05.568Z,778.29
2017-09-23T00:50:09.658Z,778.3
2017-09-23T00:50:13.747Z,778.28
2017-09-23T00:50:17.829Z,778.27
2017-09-23T00:50:22.042Z,778.29
2017-09-23T00:50:26.134Z,778.32
2017-09-23T00:50:30.350Z,778.3
2017-09-23T00:50:34.812Z,778.26
2017-09-23T00:50:39.172Z,778.28
2017-09-23T00:50:43.523Z,778.27
2017-09-23T00:50:47.737Z,778.25
2017-09-23T00:50:51.946Z,778.28
2017-09-23T00:50:56.410Z,778.28
2017-09-23T00:51:00.403Z,778.27
2017-09-23T00:51:04.615Z,778.25
2017-09-23T00:51:08.826Z,778.26
2017-09-23T00:51:13.166Z,778.24
2017-09-23T00:51:16.996Z,778.26
2017-09-23T00:51:21.328Z,778.26
2017-09-23T00:51:25.291Z,778.24
2017-09-23T00:51:29.627Z,778.26
2017-09-23T00:51:33.963Z,778.22
2017-09-23T00:51:38.044Z,778.24
2017-09-23T00:51:42.129Z,778.24
2017-09-23T00:51:46.220Z,778.24
2017-09-23T00:51:50.803Z,778.23